createdAt,value
2022-09-22T00:02:07.609Z,8.27
2022-09-22T00:04:34.038Z,8.21
2022-09-22T00:07:00.371Z,8.17
2022-09-22T00:09:26.718Z,8.18
2022-09-22T00:11:53.992Z,8.23
2022-09-22T00:14:21.402Z,8.16
2022-09-22T00:16:48.689Z,8.27
2022-09-22T00:19:16.926Z,8.33
2022-09-22T00:21:43.501Z,8.24
2022-09-22T00:24:09.873Z,8.28
2022-09-22T00:26:36.600Z,8.23
2022-09-22T00:29:03.150Z,8.22
2022-09-22T00:31:29.814Z,8.23
2022-09-22T00:33:56.488Z,8.21
2022-09-22T00:36:24.091Z,8.19
2022-09-22T00:38:54.006Z,7.97
2022-09-22T00:41:27.749Z,7.93
2022-09-22T00:44:13.086Z,7.94
2022-09-22T00:46:40.063Z,8.05
2022-09-22T00:49:06.551Z,7.93
2022-09-22T00:51:33.796Z,8.03
2022-09-22T00:54:00.609Z,7.93
2022-09-22T00:56:28.474Z,7.90
2022-09-22T00:58:56.619Z,7.91
2022-09-22T01:01:23.042Z,7.90
2022-09-22T01:03:50.076Z,7.90
2022-09-22T01:06:17.899Z,7.92
2022-09-22T01:08:44.635Z,7.98
2022-09-22T01:11:11.162Z,8.02
2022-09-22T01:13:56.483Z,8.05
2022-09-22T01:16:22.816Z,7.98
2022-09-22T01:18:49.195Z,7.96
2022-09-22T01:21:23.984Z,7.90
2022-09-22T01:24:05.937Z,8.04
2022-09-22T01:26:42.107Z,8.14
2022-09-22T01:29:08.492Z,8.14
2022-09-22T01:31:50.934Z,7.88
2022-09-22T01:34:31.393Z,7.75
2022-09-22T01:37:16.551Z,7.78
2022-09-22T01:39:43.698Z,7.70
2022-09-22T01:42:11.474Z,7.61
2022-09-22T01:44:43.561Z,7.54
2022-09-22T01:47:11.106Z,7.63
2022-09-22T01:49:38.935Z,7.53
2022-09-22T01:52:16.694Z,7.40
2022-09-22T01:55:03.238Z,7.38
2022-09-22T01:57:48.520Z,7.46
2022-09-22T02:00:15.193Z,7.49
2022-09-22T02:02:44.856Z,7.47
2022-09-22T02:05:19.304Z,7.47
2022-09-22T02:07:46.327Z,7.54
2022-09-22T02:10:13.133Z,7.57
2022-09-22T02:12:39.488Z,7.62
2022-09-22T02:15:05.999Z,7.62
2022-09-22T02:17:35.193Z,7.59
2022-09-22T02:20:02.008Z,7.52
2022-09-22T02:22:28.331Z,7.45
2022-09-22T02:24:54.682Z,7.40
2022-09-22T02:27:25.701Z,7.46
2022-09-22T02:29:56.597Z,7.38
2022-09-22T02:32:22.921Z,7.36
2022-09-22T02:34:49.249Z,7.44
2022-09-22T02:37:15.515Z,7.50
2022-09-22T02:39:43.309Z,7.45
2022-09-22T02:42:09.590Z,7.40
2022-09-22T02:44:42.165Z,7.35
2022-09-22T02:47:10.113Z,7.34
2022-09-22T02:49:36.497Z,7.31
2022-09-22T02:52:02.838Z,7.29
2022-09-22T02:54:29.223Z,7.27
2022-09-22T02:56:55.544Z,7.25
2022-09-22T02:59:21.911Z,7.24
2022-09-22T03:01:49.796Z,7.25
2022-09-22T03:04:16.251Z,7.19
2022-09-22T03:06:42.592Z,7.24
2022-09-22T03:09:08.971Z,7.20
2022-09-22T03:11:35.312Z,7.13
2022-09-22T03:14:01.667Z,7.01
2022-09-22T03:16:28.001Z,7.13
2022-09-22T03:18:54.392Z,7.27
2022-09-22T03:21:20.750Z,7.23
2022-09-22T03:23:47.162Z,7.20
2022-09-22T03:26:13.492Z,7.14
2022-09-22T03:28:39.844Z,7.06
2022-09-22T03:31:06.239Z,7.02
2022-09-22T03:33:32.818Z,6.92
2022-09-22T03:35:59.160Z,6.76
2022-09-22T03:38:25.510Z,6.93
2022-09-22T03:40:52.640Z,7.12
2022-09-22T03:43:19.202Z,7.06
2022-09-22T03:45:45.617Z,6.89
2022-09-22T03:48:12.064Z,6.94
2022-09-22T03:50:38.416Z,7.03
2022-09-22T03:53:04.741Z,7.02
2022-09-22T03:55:31.110Z,7.03
2022-09-22T03:57:57.439Z,7.06
2022-09-22T04:00:23.771Z,7.13
2022-09-22T04:02:50.145Z,7.10
2022-09-22T04:05:16.515Z,7.03
2022-09-22T04:07:42.904Z,6.98
2022-09-22T04:10:09.243Z,6.99
2022-09-22T04:12:37.179Z,6.96
2022-09-22T04:15:04.010Z,6.98
2022-09-22T04:17:30.352Z,6.95
2022-09-22T04:19:57.230Z,6.90
2022-09-22T04:22:23.565Z,6.84
2022-09-22T04:24:49.892Z,6.74
2022-09-22T04:27:19.871Z,6.77
2022-09-22T04:29:46.879Z,6.64
2022-09-22T04:32:14.417Z,6.58
2022-09-22T04:34:40.846Z,6.45
2022-09-22T04:37:07.170Z,6.59
2022-09-22T04:39:33.532Z,6.64
2022-09-22T04:41:59.866Z,6.66
2022-09-22T04:44:26.179Z,6.69
2022-09-22T04:46:52.635Z,6.76
2022-09-22T04:49:19.068Z,6.70
2022-09-22T04:51:45.396Z,6.74
2022-09-22T04:54:11.712Z,6.67
2022-09-22T04:56:39.843Z,6.72
2022-09-22T04:59:06.171Z,6.73
2022-09-22T05:01:32.724Z,6.76
2022-09-22T05:03:59.105Z,6.77
2022-09-22T05:06:26.271Z,6.75
2022-09-22T05:08:52.619Z,6.62
2022-09-22T05:11:23.602Z,6.47
2022-09-22T05:13:50.816Z,6.47
2022-09-22T05:16:17.420Z,6.63
2022-09-22T05:18:43.835Z,6.57
2022-09-22T05:21:10.214Z,6.51
2022-09-22T05:23:36.615Z,6.59
2022-09-22T05:26:03.176Z,6.71
2022-09-22T05:28:29.532Z,6.71
2022-09-22T05:30:55.857Z,6.76
2022-09-22T05:33:22.499Z,6.79
2022-09-22T05:35:48.833Z,6.80
2022-09-22T05:38:15.298Z,6.87
2022-09-22T05:40:41.684Z,6.92
2022-09-22T05:43:08.104Z,6.93
2022-09-22T05:45:34.517Z,6.96
2022-09-22T05:48:00.910Z,7.00
2022-09-22T05:50:27.234Z,7.18
2022-09-22T05:53:01.542Z,7.40
2022-09-22T05:55:27.850Z,7.47
2022-09-22T05:57:57.553Z,7.70
2022-09-22T06:00:23.879Z,7.74
2022-09-22T06:02:50.247Z,7.78
2022-09-22T06:05:18.973Z,7.86
2022-09-22T06:07:46.102Z,8.08
2022-09-22T06:10:12.717Z,8.04
2022-09-22T06:12:39.429Z,8.11
2022-09-22T06:15:05.900Z,8.09
2022-09-22T06:17:32.271Z,8.10
2022-09-22T06:20:00.742Z,8.16
2022-09-22T06:22:27.250Z,8.19
2022-09-22T06:24:53.817Z,8.24
2022-09-22T06:27:20.135Z,8.28
2022-09-22T06:29:46.468Z,8.25
2022-09-22T06:32:12.791Z,8.28
2022-09-22T06:34:39.165Z,8.24
2022-09-22T06:37:08.534Z,8.32
2022-09-22T06:39:37.645Z,8.41
2022-09-22T06:42:04.963Z,8.46
2022-09-22T06:44:31.906Z,8.54
2022-09-22T06:46:58.368Z,8.65
2022-09-22T06:49:25.671Z,8.66
2022-09-22T06:51:52.002Z,8.66
2022-09-22T06:54:18.483Z,8.72
2022-09-22T06:56:44.972Z,8.86
2022-09-22T06:59:14.310Z,8.96
2022-09-22T07:01:41.016Z,9.01
2022-09-22T07:04:07.430Z,9.12
2022-09-22T07:06:34.002Z,9.25
2022-09-22T07:09:00.433Z,9.26
2022-09-22T07:11:26.819Z,9.22
2022-09-22T07:13:53.483Z,9.36
2022-09-22T07:16:20.514Z,9.35
2022-09-22T07:18:47.494Z,9.47
2022-09-22T07:21:14.611Z,9.54
2022-09-22T07:23:41.265Z,9.60
2022-09-22T07:26:08.467Z,9.69
2022-09-22T07:28:35.032Z,9.68
2022-09-22T07:31:08.404Z,9.78
2022-09-22T07:33:38.359Z,9.89
2022-09-22T07:36:08.853Z,10.09
2022-09-22T07:38:36.914Z,10.24
2022-09-22T07:41:11.939Z,10.33
2022-09-22T07:43:38.528Z,10.56
2022-09-22T07:46:04.959Z,10.66
2022-09-22T07:48:47.838Z,10.69
2022-09-22T07:51:21.476Z,10.87
2022-09-22T07:53:49.124Z,10.75
2022-09-22T07:56:16.165Z,10.92
2022-09-22T07:58:46.837Z,11.19
2022-09-22T08:01:13.267Z,11.33
2022-09-22T08:03:39.795Z,11.57
2022-09-22T08:06:12.418Z,11.58
2022-09-22T08:08:39.490Z,11.68
2022-09-22T08:11:06.630Z,11.88
2022-09-22T08:13:34.694Z,12.15
2022-09-22T08:16:03.787Z,12.11
2022-09-22T08:18:30.251Z,12.22
2022-09-22T08:20:56.592Z,12.20
2022-09-22T08:23:23.535Z,12.35
2022-09-22T08:25:50.732Z,12.37
2022-09-22T08:28:17.100Z,12.62
2022-09-22T08:30:47.119Z,12.87
2022-09-22T08:33:13.514Z,12.94
2022-09-22T08:35:50.916Z,13.03
2022-09-22T08:38:17.323Z,12.99
2022-09-22T08:40:43.969Z,13.01
2022-09-22T08:43:10.329Z,13.25
2022-09-22T08:45:36.784Z,13.58
2022-09-22T08:48:24.970Z,13.63
2022-09-22T08:51:24.319Z,13.88
2022-09-22T08:53:51.541Z,14.03
2022-09-22T08:56:28.352Z,14.16
2022-09-22T08:58:55.193Z,14.29
2022-09-22T09:01:38.269Z,14.37
2022-09-22T09:04:11.173Z,14.41
2022-09-22T09:06:58.165Z,14.39
2022-09-22T09:09:31.108Z,14.31
2022-09-22T09:12:10.205Z,14.47
2022-09-22T09:14:36.486Z,14.38
2022-09-22T09:17:10.820Z,14.39
2022-09-22T09:19:40.469Z,14.27
2022-09-22T09:22:18.971Z,14.47
2022-09-22T09:27:38.256Z,14.47
2022-09-22T09:30:04.650Z,14.63
2022-09-22T09:32:43.674Z,14.79
2022-09-22T09:35:14.803Z,14.96
2022-09-22T09:37:42.784Z,14.97
2022-09-22T09:40:18.811Z,14.73
2022-09-22T09:42:54.654Z,14.87
2022-09-22T09:45:21.497Z,14.52
2022-09-22T09:47:59.208Z,14.60
2022-09-22T09:50:25.961Z,14.62
2022-09-22T09:52:55.506Z,14.69
2022-09-22T09:55:28.280Z,14.82
2022-09-22T09:58:01.140Z,14.84
2022-09-22T10:00:33.786Z,14.92
2022-09-22T10:03:03.213Z,15.05
2022-09-22T10:05:29.676Z,14.90
2022-09-22T10:07:55.975Z,14.95
2022-09-22T10:10:35.734Z,14.82
2022-09-22T10:13:05.075Z,15.01
2022-09-22T10:15:35.290Z,15.24
2022-09-22T10:18:01.883Z,15.52
2022-09-22T10:20:29.205Z,15.56
2022-09-22T10:22:55.908Z,15.72
2022-09-22T10:25:26.092Z,15.79
2022-09-22T10:28:01.540Z,15.57
2022-09-22T10:30:28.242Z,16.06
2022-09-22T10:33:07.198Z,16.28
2022-09-22T10:35:33.690Z,16.25
2022-09-22T10:38:01.799Z,16.66
2022-09-22T10:40:28.196Z,16.71
2022-09-22T10:42:55.260Z,16.71
2022-09-22T10:45:22.703Z,16.67
2022-09-22T10:47:54.554Z,16.89
2022-09-22T10:50:23.616Z,16.50
2022-09-22T10:53:02.824Z,16.02
2022-09-22T10:55:30.169Z,16.61
2022-09-22T10:58:00.486Z,17.08
2022-09-22T11:00:27.012Z,17.29
2022-09-22T11:02:59.553Z,17.14
2022-09-22T11:05:50.872Z,17.10
2022-09-22T11:08:36.241Z,17.18
2022-09-22T11:11:23.421Z,17.44
2022-09-22T11:13:49.706Z,17.09
2022-09-22T11:16:15.978Z,17.61
2022-09-22T11:18:51.345Z,18.02
2022-09-22T11:21:21.669Z,17.65
2022-09-22T11:24:03.314Z,17.39
2022-09-22T11:26:50.031Z,17.74
2022-09-22T11:29:34.736Z,17.91
2022-09-22T11:32:19.817Z,18.30
2022-09-22T11:35:15.533Z,18.45
2022-09-22T11:37:41.995Z,18.62
2022-09-22T11:40:20.864Z,18.24
2022-09-22T11:42:55.138Z,18.08
2022-09-22T11:45:37.121Z,18.62
2022-09-22T11:48:22.286Z,18.81
2022-09-22T11:50:48.583Z,18.89
2022-09-22T11:53:17.957Z,18.52
2022-09-22T11:56:04.253Z,18.64
2022-09-22T11:58:31.203Z,18.76
2022-09-22T12:01:13.287Z,19.03
2022-09-22T12:03:53.364Z,18.78
2022-09-22T12:06:24.203Z,18.72
2022-09-22T12:09:17.087Z,19.08
2022-09-22T12:11:43.428Z,19.13
2022-09-22T12:14:13.426Z,19.07
2022-09-22T12:16:43.665Z,19.45
2022-09-22T12:19:19.170Z,19.17
2022-09-22T12:21:47.812Z,20.01
2022-09-22T12:24:14.190Z,19.86
2022-09-22T12:26:41.332Z,20.29
2022-09-22T12:29:27.886Z,20.08
2022-09-22T12:31:59.015Z,20.15
2022-09-22T12:34:29.486Z,20.21
2022-09-22T12:36:57.158Z,20.45
2022-09-22T12:39:23.479Z,19.86
2022-09-22T12:41:50.361Z,20.33
2022-09-22T12:44:21.111Z,20.17
2022-09-22T12:46:47.515Z,19.88
2022-09-22T12:49:15.091Z,20.14
2022-09-22T12:51:41.413Z,20.32
2022-09-22T12:54:23.109Z,20.44
2022-09-22T12:57:01.675Z,20.26
2022-09-22T12:59:40.198Z,18.39
2022-09-22T13:02:15.984Z,19.01
2022-09-22T13:04:46.684Z,19.71
2022-09-22T13:07:31.927Z,20.24
2022-09-22T13:10:17.293Z,19.31
2022-09-22T13:13:05.674Z,19.93
2022-09-22T13:15:45.141Z,20.13
2022-09-22T13:18:27.687Z,20.21
2022-09-22T13:20:54.114Z,19.76
2022-09-22T13:23:20.528Z,20.08
2022-09-22T13:25:47.022Z,20.32
2022-09-22T13:28:14.812Z,20.23
2022-09-22T13:30:41.966Z,20.55
2022-09-22T13:33:18.153Z,20.44
2022-09-22T13:35:44.488Z,20.53
2022-09-22T13:38:11.999Z,20.54
2022-09-22T13:40:38.434Z,20.38
2022-09-22T13:43:06.531Z,20.53
2022-09-22T13:45:32.943Z,20.91
2022-09-22T13:48:08.337Z,21.50
2022-09-22T13:50:38.525Z,21.43
2022-09-22T13:53:05.077Z,20.90
2022-09-22T13:55:35.302Z,20.19
2022-09-22T13:58:02.951Z,20.73
2022-09-22T14:00:38.219Z,20.76
2022-09-22T14:03:15.650Z,20.68
2022-09-22T14:05:53.156Z,21.28
2022-09-22T14:08:22.140Z,21.29
2022-09-22T14:10:48.897Z,21.24
2022-09-22T14:13:34.076Z,21.17
2022-09-22T14:16:05.367Z,20.93
2022-09-22T14:18:31.766Z,20.81
2022-09-22T14:20:58.111Z,20.00
2022-09-22T14:23:24.378Z,19.66
2022-09-22T14:25:50.712Z,19.97
2022-09-22T14:28:19.114Z,19.42
2022-09-22T14:30:45.530Z,19.67
2022-09-22T14:33:15.346Z,19.36
2022-09-22T14:35:42.188Z,18.96
2022-09-22T14:38:18.866Z,18.33
2022-09-22T14:40:53.991Z,18.48
2022-09-22T14:43:30.320Z,17.61
2022-09-22T14:46:00.560Z,17.51
2022-09-22T14:48:33.959Z,17.50
2022-09-22T14:51:01.388Z,17.48
2022-09-22T14:53:37.687Z,17.46
2022-09-22T14:56:07.849Z,17.47
2022-09-22T14:58:40.309Z,17.23
2022-09-22T15:01:34.588Z,17.20
2022-09-22T15:04:02.729Z,16.49
2022-09-22T15:06:37.188Z,16.37
2022-09-22T15:09:06.704Z,15.90
2022-09-22T15:12:08.824Z,16.00
2022-09-22T15:14:41.310Z,16.15
2022-09-22T15:17:45.165Z,16.28
2022-09-22T15:20:12.887Z,16.32
2022-09-22T15:22:39.995Z,16.43
2022-09-22T15:25:06.439Z,16.34
2022-09-22T15:27:32.788Z,16.28
2022-09-22T15:29:59.554Z,16.09
2022-09-22T15:32:25.930Z,16.03
2022-09-22T15:34:52.331Z,15.82
2022-09-22T15:37:19.611Z,15.66
2022-09-22T15:39:45.966Z,15.53
2022-09-22T15:42:12.470Z,15.48
2022-09-22T15:44:38.833Z,15.41
2022-09-22T15:47:05.648Z,15.29
2022-09-22T15:49:35.016Z,14.98
2022-09-22T15:52:04.776Z,15.01
2022-09-22T15:54:31.378Z,14.73
2022-09-22T15:56:59.160Z,14.48
2022-09-22T15:59:27.315Z,14.19
2022-09-22T16:01:57.226Z,14.21
2022-09-22T16:04:23.768Z,14.04
2022-09-22T16:06:52.596Z,13.96
2022-09-22T16:09:19.125Z,13.96
2022-09-22T16:11:45.476Z,14.01
2022-09-22T16:14:11.899Z,13.95
2022-09-22T16:16:38.353Z,13.85
2022-09-22T16:19:07.932Z,13.84
2022-09-22T16:21:35.128Z,13.84
2022-09-22T16:24:03.918Z,13.75
2022-09-22T16:26:31.648Z,13.60
2022-09-22T16:28:58.163Z,13.51
2022-09-22T16:31:24.619Z,13.45
2022-09-22T16:33:54.706Z,13.24
2022-09-22T16:36:21.668Z,13.26
2022-09-22T16:38:48.362Z,13.20
2022-09-22T16:41:17.711Z,13.11
2022-09-22T16:43:44.228Z,12.92
2022-09-22T16:46:29.820Z,13.09
2022-09-22T16:48:58.482Z,13.22
2022-09-22T16:51:25.061Z,13.23
2022-09-22T16:53:53.712Z,13.28
2022-09-22T16:56:20.190Z,13.15
2022-09-22T16:58:46.597Z,12.82
2022-09-22T17:01:19.445Z,12.72
2022-09-22T17:03:46.519Z,12.41
2022-09-22T17:06:14.366Z,12.42
2022-09-22T17:08:46.611Z,12.48
2022-09-22T17:11:13.558Z,12.55
2022-09-22T17:13:40.189Z,12.42
2022-09-22T17:16:10.550Z,12.36
2022-09-22T17:18:40.185Z,12.33
2022-09-22T17:21:08.146Z,11.93
2022-09-22T17:23:36.225Z,11.74
2022-09-22T17:26:03.032Z,11.56
2022-09-22T17:28:29.415Z,11.41
2022-09-22T17:30:59.045Z,11.35
2022-09-22T17:33:26.382Z,11.49
2022-09-22T17:35:59.351Z,11.79
2022-09-22T17:38:26.965Z,11.55
2022-09-22T17:40:55.930Z,11.36
2022-09-22T17:43:22.685Z,11.35
2022-09-22T17:45:49.052Z,11.44
2022-09-22T17:48:34.135Z,11.53
2022-09-22T17:51:18.966Z,11.48
2022-09-22T17:54:04.080Z,11.31
2022-09-22T17:56:30.397Z,11.29
2022-09-22T17:58:56.737Z,11.42
2022-09-22T18:01:23.140Z,11.49
2022-09-22T18:03:49.498Z,11.30
2022-09-22T18:06:16.324Z,11.32
2022-09-22T18:08:44.399Z,11.29
2022-09-22T18:11:11.184Z,11.33
2022-09-22T18:13:40.271Z,11.44
2022-09-22T18:16:18.502Z,11.51
2022-09-22T18:18:44.889Z,11.28
2022-09-22T18:21:11.223Z,11.02
2022-09-22T18:23:39.762Z,11.09
2022-09-22T18:26:06.123Z,11.04
2022-09-22T18:28:33.743Z,10.87
2022-09-22T18:31:00.897Z,10.89
2022-09-22T18:33:27.518Z,10.93
2022-09-22T18:35:54.733Z,11.13
2022-09-22T18:38:21.066Z,11.22
2022-09-22T18:40:47.568Z,11.06
2022-09-22T18:43:13.945Z,11.06
2022-09-22T18:45:40.317Z,11.37
2022-09-22T18:48:07.117Z,11.59
2022-09-22T18:50:34.638Z,11.72
2022-09-22T18:53:01.090Z,11.65
2022-09-22T18:55:27.441Z,11.35
2022-09-22T18:57:54.063Z,11.40
2022-09-22T19:00:21.578Z,11.31
2022-09-22T19:02:48.510Z,11.18
2022-09-22T19:05:14.882Z,11.12
2022-09-22T19:07:44.116Z,10.92
2022-09-22T19:10:14.713Z,10.93
2022-09-22T19:12:41.240Z,10.86
2022-09-22T19:15:15.618Z,10.88
2022-09-22T19:17:43.999Z,10.89
2022-09-22T19:20:12.263Z,10.83
2022-09-22T19:22:38.598Z,10.80
2022-09-22T19:25:05.693Z,10.68
2022-09-22T19:27:32.384Z,10.68
2022-09-22T19:29:58.715Z,10.60
2022-09-22T19:32:25.069Z,10.45
2022-09-22T19:34:53.678Z,10.31
2022-09-22T19:37:20.306Z,10.35
2022-09-22T19:39:46.627Z,10.54
2022-09-22T19:42:12.946Z,10.64
2022-09-22T19:44:40.113Z,10.65
2022-09-22T19:47:06.440Z,10.53
2022-09-22T19:49:32.804Z,10.34
2022-09-22T19:51:59.136Z,10.22
2022-09-22T19:54:25.499Z,10.41
2022-09-22T19:56:51.831Z,10.27
2022-09-22T19:59:19.585Z,10.43
2022-09-22T20:01:46.376Z,10.30
2022-09-22T20:04:13.315Z,10.07
2022-09-22T20:06:39.634Z,9.99
2022-09-22T20:09:05.950Z,9.95
2022-09-22T20:11:36.343Z,9.96
2022-09-22T20:14:22.153Z,9.95
2022-09-22T20:16:55.361Z,9.92
2022-09-22T20:19:25.665Z,10.05
2022-09-22T20:21:54.464Z,9.97
2022-09-22T20:24:21.379Z,10.04
2022-09-22T20:26:47.959Z,10.08
2022-09-22T20:29:14.876Z,10.17
2022-09-22T20:31:41.296Z,10.14
2022-09-22T20:34:07.612Z,9.93
2022-09-22T20:36:36.902Z,9.75
2022-09-22T20:39:03.906Z,9.89
2022-09-22T20:41:30.338Z,9.87
2022-09-22T20:43:58.352Z,9.98
2022-09-22T20:46:24.727Z,9.82
2022-09-22T20:48:55.251Z,9.67
2022-09-22T20:51:21.817Z,9.60
2022-09-22T20:53:48.143Z,9.69
2022-09-22T20:56:14.872Z,9.68
2022-09-22T20:58:41.696Z,9.61
2022-09-22T21:01:08.363Z,9.60
2022-09-22T21:03:35.275Z,9.54
2022-09-22T21:06:02.091Z,9.63
2022-09-22T21:08:47.193Z,9.68
2022-09-22T21:11:14.170Z,9.68
2022-09-22T21:13:41.238Z,9.56
2022-09-22T21:16:07.682Z,9.62
2022-09-22T21:18:37.316Z,9.53
2022-09-22T21:21:04.137Z,9.40
2022-09-22T21:23:31.131Z,9.37
2022-09-22T21:26:05.702Z,9.42
2022-09-22T21:28:32.032Z,9.36
2022-09-22T21:30:59.192Z,9.40
2022-09-22T21:33:27.013Z,9.22
2022-09-22T21:36:00.925Z,9.22
2022-09-22T21:38:27.563Z,9.24
2022-09-22T21:40:57.871Z,9.17
2022-09-22T21:43:24.197Z,9.26
2022-09-22T21:45:55.116Z,9.44
2022-09-22T21:48:21.460Z,9.40
2022-09-22T21:50:54.709Z,9.39
2022-09-22T21:53:21.101Z,9.46
2022-09-22T21:55:47.449Z,9.35
2022-09-22T21:58:13.764Z,9.41
2022-09-22T22:00:51.764Z,9.58
2022-09-22T22:03:30.816Z,9.80
2022-09-22T22:06:03.456Z,9.87
2022-09-22T22:08:33.677Z,9.97
2022-09-22T22:11:06.006Z,9.95
2022-09-22T22:13:36.072Z,9.97
2022-09-22T22:16:02.683Z,9.85
2022-09-22T22:18:29.152Z,9.64
2022-09-22T22:21:05.630Z,9.51
2022-09-22T22:23:32.953Z,9.47
2022-09-22T22:26:00.990Z,9.22
2022-09-22T22:28:27.487Z,9.02
2022-09-22T22:30:53.878Z,9.00
2022-09-22T22:33:21.851Z,9.08
2022-09-22T22:35:51.808Z,9.08
2022-09-22T22:38:18.140Z,8.98
2022-09-22T22:40:46.491Z,8.91
2022-09-22T22:43:16.711Z,9.13
2022-09-22T22:45:46.217Z,8.85
2022-09-22T22:48:12.754Z,8.87
2022-09-22T22:50:42.001Z,8.78
2022-09-22T22:53:09.024Z,8.72
2022-09-22T22:55:35.642Z,8.75
2022-09-22T22:58:01.985Z,8.74
2022-09-22T23:00:28.400Z,8.86
2022-09-22T23:02:54.714Z,8.65
2022-09-22T23:05:21.207Z,8.74
2022-09-22T23:07:47.589Z,8.63
2022-09-22T23:10:13.932Z,8.71
2022-09-22T23:12:40.402Z,8.67
2022-09-22T23:15:10.239Z,8.61
2022-09-22T23:17:36.754Z,8.60
2022-09-22T23:20:04.263Z,8.63
2022-09-22T23:22:30.628Z,8.65
2022-09-22T23:24:57.272Z,8.62
2022-09-22T23:27:23.700Z,8.66
2022-09-22T23:29:50.449Z,8.53
2022-09-22T23:32:17.168Z,8.52
2022-09-22T23:34:43.729Z,8.49
2022-09-22T23:37:10.094Z,8.46
2022-09-22T23:39:36.435Z,8.40
2022-09-22T23:42:02.826Z,8.60
2022-09-22T23:44:29.735Z,8.66
2022-09-22T23:46:56.542Z,8.64
2022-09-22T23:49:22.896Z,8.67
2022-09-22T23:51:49.232Z,8.45
2022-09-22T23:54:15.543Z,8.24
2022-09-22T23:56:41.876Z,8.30
2022-09-22T23:59:08.358Z,8.36
